Time;durP1;ratioP1;P1;durP2;ratioP2;P2;SDS_P1;SDS_P2;PMS_P1;PMS_P2;Temp;Humidity;BMP_temperature;BMP_pressure;BME280_temperature;BME280_humidity;BME280_pressure;Samples;Min_cycle;Max_cycle;Signal;HPM_P1;HPM_P2
2023/04/02 00:01:27;;;;;;;;;13.00;13.00;;;;;8.49;91.77;98494.16;6301815;20;3519149;-68
2023/04/02 00:04:02;;;;;;;;;19.00;13.00;;;;;8.44;92.20;98497.16;6305272;20;2822237;-65
2023/04/02 00:06:43;;;;;;;;;19.33;16.67;;;;;8.54;91.86;98497.38;6271614;20;3544053;-66
2023/04/02 00:09:14;;;;;;;;;14.00;13.00;;;;;8.50;92.23;98501.22;6305492;20;2813888;-67
2023/04/02 00:11:48;;;;;;;;;18.00;14.00;;;;;8.49;91.86;98497.69;6275604;20;3539995;-66
2023/04/02 00:14:30;;;;;;;;;13.40;12.20;;;;;8.52;92.02;98500.13;6324426;20;2804509;-70
2023/04/02 00:17:03;;;;;;;;;14.67;14.67;;;;;8.49;91.85;98500.38;6271754;20;3544083;-69
2023/04/02 00:19:59;;;;;;;;;15.00;13.00;;;;;8.45;92.12;98498.91;6271970;20;2795230;-69
2023/04/02 00:22:32;;;;;;;;;13.67;12.00;;;;;8.60;91.50;98496.06;6302297;20;3544126;-74
2023/04/02 00:25:11;;;;;;;;;8.00;8.00;;;;;8.69;90.82;98495.38;6308483;20;2743550;-68
2023/04/02 00:27:41;;;;;;;;;11.00;11.00;;;;;8.79;90.47;98496.41;6270522;20;2785744;-71
2023/04/02 00:30:15;;;;;;;;;10.00;7.00;;;;;8.86;89.94;98503.03;6293001;20;1808259;-67
2023/04/02 00:32:43;;;;;;;;;4.00;4.00;;;;;8.99;89.27;98498.47;6306065;20;2748269;-69
2023/04/02 00:35:26;;;;;;;;;8.00;7.83;;;;;9.00;89.18;98494.84;6313847;20;1802376;-69
2023/04/02 00:37:57;;;;;;;;;8.50;7.75;;;;;9.07;88.21;98491.72;6292787;20;1809778;-70
2023/04/02 00:40:29;;;;;;;;;7.00;7.00;;;;;8.95;88.33;98491.66;6303478;20;2742039;-67
2023/04/02 00:43:03;;;;;;;;;6.00;6.00;;;;;9.06;88.04;98493.53;6275410;20;2735660;-67
2023/04/02 00:45:36;;;;;;;;;6.00;5.00;;;;;9.08;87.82;98493.41;6272314;20;2748230;-67
2023/04/02 00:48:32;;;;;;;;;9.00;9.00;;;;;9.11;87.85;98495.84;6273573;20;2748213;-71
2023/04/02 00:51:34;;;;;;;;;6.00;6.00;;;;;9.21;87.36;98510.25;6277499;20;2738874;-66
2023/04/02 00:54:14;;;;;;;;;4.00;3.25;;;;;9.25;86.96;98511.75;6321266;20;1808723;-65
2023/04/02 00:56:52;;;;;;;;;5.50;5.50;;;;;9.17;87.38;98524.88;6305619;20;2745189;-68
2023/04/02 00:59:36;;;;;;;;;4.75;4.00;;;;;9.14;87.59;98525.94;6290777;20;1814460;-70
2023/04/02 01:02:17;;;;;;;;;6.00;6.00;;;;;8.93;89.26;98536.44;6304280;20;2739886;-65
2023/04/02 01:05:22;;;;;;;;;9.00;7.50;;;;;8.71;90.54;98526.41;6277634;20;2737759;-71
2023/04/02 01:08:47;;;;;;;;;7.67;6.67;;;;;8.67;91.11;98530.28;6322378;20;1813911;-68
2023/04/02 01:11:38;;;;;;;;;6.80;4.80;;;;;8.66;91.14;98536.63;6330510;20;2734741;-69
2023/04/02 01:14:27;;;;;;;;;6.00;6.00;;;;;8.42;92.96;98549.06;6307809;20;2746084;-67
2023/04/02 01:17:49;;;;;;;;;6.50;6.50;;;;;8.18;94.23;98543.59;6306650;20;2738909;-71
2023/04/02 01:20:55;;;;;;;;;7.00;7.00;;;;;8.17;94.49;98542.75;6274185;20;2736841;-69
2023/04/02 01:23:59;;;;;;;;;11.00;10.00;;;;;8.11;94.75;98538.69;6303869;20;2773335;-70
2023/04/02 01:26:45;;;;;;;;;10.00;6.00;;;;;8.43;93.61;98548.13;6274645;20;2765064;-71
2023/04/02 01:29:38;;;;;;;;;6.50;6.50;;;;;8.49;92.64;98548.50;6289263;20;1813941;-69
2023/04/02 01:32:12;;;;;;;;;10.00;8.00;;;;;8.18;94.31;98548.94;6306255;20;2741370;-69
2023/04/02 01:34:48;;;;;;;;;9.00;7.50;;;;;7.98;95.01;98542.28;6346904;20;1803920;-64
2023/04/02 01:37:55;;;;;;;;;8.50;8.50;;;;;8.12;94.93;98545.72;6274641;20;2746084;-65
2023/04/02 01:41:11;;;;;;;;;9.00;9.00;;;;;7.98;95.50;98547.66;6275201;20;2705531;-67
2023/04/02 01:43:52;;;;;;;;;8.00;8.00;;;;;7.97;95.28;98545.94;6303854;20;2746104;-68
2023/04/02 01:46:43;;;;;;;;;10.00;8.00;;;;;7.97;95.83;98540.59;6270719;20;2769020;-63
2023/04/02 01:49:20;;;;;;;;;8.00;8.00;;;;;8.01;95.74;98542.13;6273842;20;2731579;-67
2023/04/02 01:51:57;;;;;;;;;9.00;8.00;;;;;7.99;95.80;98544.03;6303793;20;2739874;-68
2023/04/02 01:54:27;;;;;;;;;8.00;7.00;;;;;7.91;95.86;98552.56;6269175;20;2744023;-67
2023/04/02 01:56:58;;;;;;;;;9.00;7.00;;;;;7.88;96.65;98536.75;6272518;20;2742044;-64
2023/04/02 01:59:32;;;;;;;;;9.50;8.17;;;;;7.97;96.88;98549.47;6314601;20;1793049;-66
2023/04/02 02:02:12;;;;;;;;;6.00;6.00;;;;;8.02;96.70;98549.16;6289177;20;1816469;-68
2023/04/02 02:04:41;;;;;;;;;8.50;8.00;;;;;8.18;95.68;98551.63;6321322;20;1813001;-66
2023/04/02 02:07:20;;;;;;;;;7.00;7.00;;;;;8.28;95.23;98539.31;6304101;20;2743016;-69
2023/04/02 02:09:49;;;;;;;;;8.00;4.00;;;;;8.22;95.22;98537.09;6304346;20;2747240;-68
2023/04/02 02:12:18;;;;;;;;;6.25;5.25;;;;;8.22;95.61;98540.59;6288850;20;1834816;-71
2023/04/02 02:14:49;;;;;;;;;6.00;6.00;;;;;8.46;94.72;98542.53;6321255;20;1819210;-67
2023/04/02 02:17:33;;;;;;;;;5.00;5.00;;;;;8.43;94.43;98548.97;6305746;20;2748303;-68
2023/04/02 02:20:10;;;;;;;;;4.25;4.25;;;;;8.40;94.58;98551.88;6290010;20;1819186;-68
2023/04/02 02:22:45;;;;;;;;;4.00;4.00;;;;;8.45;94.58;98551.50;6306869;20;2756547;-67
2023/04/02 02:25:26;;;;;;;;;5.00;4.00;;;;;8.43;94.88;98548.13;6278663;20;2750298;-67
2023/04/02 02:28:32;;;;;;;;;4.00;4.00;;;;;8.28;95.40;98544.66;6280369;20;2750340;-68
2023/04/02 02:31:26;;;;;;;;;5.00;3.25;;;;;8.29;95.45;98541.00;6298545;20;1811817;-74
2023/04/02 02:34:17;;;;;;;;;4.50;3.50;;;;;8.26;95.94;98541.22;6311753;20;2749358;-67
2023/04/02 02:37:05;;;;;;;;;3.00;3.00;;;;;8.33;96.36;98545.19;6296137;20;1813436;-70
2023/04/02 02:39:44;;;;;;;;;5.00;5.00;;;;;8.44;95.61;98550.66;6312769;20;2745185;-68
2023/04/02 02:42:29;;;;;;;;;9.00;7.50;;;;;8.41;95.61;98545.53;6307826;20;2737849;-67
2023/04/02 02:45:01;;;;;;;;;9.00;9.00;;;;;8.47;95.69;98545.09;6276555;20;2736799;-68
2023/04/02 02:47:34;;;;;;;;;10.50;9.00;;;;;8.30;96.12;98543.59;6277965;20;2754470;-66
2023/04/02 02:50:12;;;;;;;;;4.50;4.50;;;;;8.41;96.42;98544.69;6292362;20;1817187;-66
2023/04/02 02:52:50;;;;;;;;;3.00;3.00;;;;;8.45;96.17;98546.16;6309012;20;2756527;-69
2023/04/02 02:55:33;;;;;;;;;3.00;3.00;;;;;8.50;95.56;98552.88;6279374;20;2736746;-68
2023/04/02 02:58:10;;;;;;;;;2.00;2.00;;;;;8.50;95.07;98558.25;6326211;20;1813930;-69
2023/04/02 03:00:39;;;;;;;;;4.00;3.00;;;;;8.56;95.36;98551.63;6325751;20;1815035;-74
2023/04/02 03:03:27;;;;;;;;;8.25;3.00;;;;;8.58;95.05;98552.34;6324320;20;1817174;-71
2023/04/02 03:06:05;;;;;;;;;3.75;3.00;;;;;8.65;95.04;98553.63;6323021;20;1815065;-69
2023/04/02 03:09:03;;;;;;;;;4.00;2.75;;;;;8.54;94.86;98548.19;6327463;20;1809241;-68
2023/04/02 03:11:42;;;;;;;;;3.50;3.50;;;;;8.51;95.81;98551.94;6325608;20;1804336;-70
2023/04/02 03:14:52;;;;;;;;;3.00;3.00;;;;;8.40;96.00;98543.84;6325742;20;1817056;-66
2023/04/02 03:17:37;;;;;;;;;3.75;3.75;;;;;8.07;96.88;98541.66;6325539;20;1799685;-69
2023/04/02 03:20:33;;;;;;;;;3.75;3.00;;;;;8.17;97.75;98552.59;6322416;20;1809164;-68
2023/04/02 03:23:39;;;;;;;;;2.50;2.50;;;;;8.31;97.74;98545.28;6308535;20;2735672;-68
2023/04/02 03:26:53;;;;;;;;;5.75;5.75;;;;;8.05;98.12;98538.25;6325353;20;1814030;-65
2023/04/02 03:29:30;;;;;;;;;10.00;8.00;;;;;8.32;97.34;98548.81;6308389;20;2755484;-65
2023/04/02 03:32:21;;;;;;;;;10.00;7.00;;;;;8.03;97.50;98550.84;6276312;20;2741974;-67
2023/04/02 03:35:00;;;;;;;;;6.00;4.00;;;;;8.07;98.25;98553.22;6275569;20;2743220;-69
2023/04/02 03:37:45;;;;;;;;;7.50;4.50;;;;;8.05;98.96;98548.94;6304156;20;2751415;-70
2023/04/02 03:40:34;;;;;;;;;3.00;3.00;;;;;8.17;98.07;98549.91;6276763;20;2756751;-68
2023/04/02 03:43:26;;;;;;;;;4.00;2.50;;;;;8.04;98.30;98556.09;6274522;20;2754483;-67
2023/04/02 03:46:38;;;;;;;;;3.00;3.00;;;;;8.21;97.58;98560.25;6275839;20;2738859;-70
2023/04/02 03:49:32;;;;;;;;;5.00;3.00;;;;;8.24;97.34;98553.84;6277925;20;2754496;-69
2023/04/02 03:52:09;;;;;;;;;4.50;4.00;;;;;8.29;97.41;98557.06;6279535;20;2754523;-68
2023/04/02 03:54:39;;;;;;;;;5.00;5.00;;;;;8.22;97.54;98556.66;6275135;20;2751347;-69
2023/04/02 03:57:51;;;;;;;;;5.00;5.00;;;;;8.32;96.99;98556.84;6277391;20;2756501;-68
2023/04/02 04:00:49;;;;;;;;;4.00;4.00;;;;;8.24;97.57;98561.88;6294338;20;1809658;-69
2023/04/02 04:03:47;;;;;;;;;4.00;4.00;;;;;8.30;97.37;98569.47;6307618;20;2743022;-72
2023/04/02 04:06:29;;;;;;;;;5.00;4.00;;;;;8.24;97.65;98565.44;6273374;20;2754589;-68
2023/04/02 04:09:31;;;;;;;;;3.00;3.00;;;;;8.29;97.59;98573.09;6290267;20;1807876;-68
2023/04/02 04:12:25;;;;;;;;;4.50;4.50;;;;;8.39;96.96;98578.66;6303785;20;2752407;-70
2023/04/02 04:15:23;;;;;;;;;5.00;4.00;;;;;8.40;96.61;98578.59;6273778;20;2756697;-69
2023/04/02 04:18:18;;;;;;;;;4.50;3.00;;;;;8.36;96.55;98585.09;6274972;20;2739862;-64
2023/04/02 04:21:04;;;;;;;;;5.00;5.00;;;;;8.38;96.94;98590.34;6292203;20;1816118;-68
2023/04/02 04:23:39;;;;;;;;;5.75;5.75;;;;;8.35;97.09;98588.75;6322177;20;1819143;-67
2023/04/02 04:26:29;;;;;;;;;8.50;6.00;;;;;8.43;97.06;98590.91;6305089;20;2741979;-72
2023/04/02 04:29:37;;;;;;;;;10.00;8.00;;;;;8.36;97.06;98590.44;6271832;20;2769261;-65
2023/04/02 04:32:25;;;;;;;;;11.00;7.00;;;;;8.32;97.47;98579.09;6271015;20;2754487;-70
2023/04/02 04:35:18;;;;;;;;;19.33;13.67;;;;;8.30;97.67;98596.22;6270040;20;3547226;-70
2023/04/02 04:37:52;;;;;;;;;15.00;15.00;;;;;8.44;97.20;98600.63;6300646;20;2491952;-67
2023/04/02 04:40:35;;;;;;;;;16.00;16.00;;;;;8.41;97.39;98604.38;6271456;20;3556534;-69
2023/04/02 04:43:13;;;;;;;;;11.50;10.00;;;;;8.34;97.15;98606.56;6304435;20;2776343;-67
2023/04/02 04:45:59;;;;;;;;;16.50;15.00;;;;;8.45;96.91;98608.56;6272026;20;2811454;-69
2023/04/02 04:48:45;;;;;;;;;8.00;8.00;;;;;8.42;96.69;98607.91;6314739;20;1803410;-68
2023/04/02 04:51:41;;;;;;;;;10.00;9.00;;;;;8.35;97.33;98610.13;6270723;20;2759637;-66
2023/04/02 04:54:18;;;;;;;;;6.25;6.25;;;;;8.42;96.85;98613.25;6287796;20;1812478;-67
2023/04/02 04:56:54;;;;;;;;;7.00;5.50;;;;;8.60;96.87;98613.78;6304396;20;2747156;-70
2023/04/02 04:59:39;;;;;;;;;6.50;5.00;;;;;8.66;95.75;98618.69;6271069;20;2744051;-67
2023/04/02 05:02:21;;;;;;;;;8.00;6.00;;;;;8.58;96.50;98621.91;6272137;20;2740985;-70
2023/04/02 05:04:52;;;;;;;;;9.00;9.00;;;;;8.65;95.96;98622.34;6271091;20;2756642;-65
2023/04/02 05:07:46;;;;;;;;;6.00;6.00;;;;;8.93;94.76;98619.41;6273817;20;2732019;-70
2023/04/02 05:10:39;;;;;;;;;6.50;6.50;;;;;9.60;91.89;98618.09;6307423;20;2734681;-67
2023/04/02 05:13:31;;;;;;;;;6.50;6.50;;;;;10.78;86.16;98625.13;6306502;20;2738935;-68
2023/04/02 05:16:33;;;;;;;;;6.00;6.00;;;;;9.83;89.13;98625.25;6274832;20;2737745;-67
2023/04/02 05:19:53;;;;;;;;;10.00;9.00;;;;;9.74;90.17;98634.00;6273878;20;2752338;-69
2023/04/02 05:22:48;;;;;;;;;6.00;6.00;;;;;9.83;89.46;98635.13;6280451;20;2622296;-67
2023/04/02 05:25:29;;;;;;;;;6.00;4.00;;;;;9.86;89.26;98641.13;6308351;20;2741955;-73
2023/04/02 05:28:29;;;;;;;;;6.00;6.00;;;;;10.28;88.78;98640.69;6272591;20;2734740;-70
2023/04/02 05:31:21;;;;;;;;;5.00;5.00;;;;;10.61;85.92;98644.38;6272787;20;2738877;-69
2023/04/02 05:33:50;;;;;;;;;12.00;9.00;;;;;10.53;86.02;98644.97;6271136;20;2775391;-65
2023/04/02 05:36:28;;;;;;;;;19.67;17.67;;;;;10.48;87.06;98645.34;6269188;20;3573782;-64
2023/04/02 05:38:58;;;;;;;;;12.67;12.67;;;;;11.98;81.60;98650.28;6267774;20;3516957;-68
2023/04/02 05:41:42;;;;;;;;;6.50;6.50;;;;;11.78;81.11;98657.31;6306470;20;2733621;-65
2023/04/02 05:44:33;;;;;;;;;6.50;6.50;;;;;10.82;84.52;98657.94;6271059;20;2741965;-69
2023/04/02 05:47:21;;;;;;;;;5.00;5.00;;;;;10.56;86.64;98655.50;6273342;20;2750295;-68
2023/04/02 05:50:29;;;;;;;;;5.00;5.00;;;;;11.34;83.24;98653.75;6271633;20;2748220;-66
2023/04/02 05:53:36;;;;;;;;;5.00;5.00;;;;;11.52;82.69;98662.16;6273748;20;2738931;-69
2023/04/02 05:56:36;;;;;;;;;6.00;4.60;;;;;11.29;82.40;98666.72;6316560;20;2471253;-67
2023/04/02 05:59:32;;;;;;;;;7.00;7.00;;;;;10.91;85.16;98667.97;6313156;20;2745061;-66
2023/04/02 06:02:30;;;;;;;;;3.25;3.25;;;;;11.02;84.37;98670.66;6298014;20;1808744;-67
2023/04/02 06:05:16;;;;;;;;;7.00;7.00;;;;;11.53;82.47;98683.56;6309710;20;2743079;-69
2023/04/02 06:07:56;;;;;;;;;10.20;10.00;;;;;11.78;80.95;98686.91;6300848;20;2798195;-70
2023/04/02 06:10:46;;;;;;;;;7.00;7.00;;;;;11.47;81.33;98681.34;6281212;20;2740347;-69
2023/04/02 06:13:19;;;;;;;;;6.00;6.00;;;;;11.72;80.39;98690.97;6277894;20;2737828;-69
2023/04/02 06:15:48;;;;;;;;;4.00;4.00;;;;;12.66;76.15;98702.78;6275542;20;2737832;-68
2023/04/02 06:18:31;;;;;;;;;10.50;8.00;;;;;13.69;72.41;98707.28;6274440;20;2764990;-67
2023/04/02 06:21:04;;;;;;;;;7.60;6.60;;;;;14.44;67.43;98713.88;6298453;20;2737809;-65
2023/04/02 06:24:02;;;;;;;;;8.00;7.00;;;;;16.01;61.19;98724.06;6306499;20;2738831;-67
2023/04/02 06:26:40;;;;;;;;;7.40;6.00;;;;;15.76;61.25;98717.50;6297995;20;2741950;-68
2023/04/02 06:29:27;;;;;;;;;9.50;8.00;;;;;15.37;63.18;98717.66;6306549;20;2746169;-70
2023/04/02 06:32:02;;;;;;;;;11.40;10.40;;;;;18.38;53.90;98721.97;6298789;20;2791997;-64
2023/04/02 06:34:31;;;;;;;;;7.50;7.50;;;;;20.97;46.38;98728.69;6273304;20;2739970;-68
2023/04/02 06:37:23;;;;;;;;;8.00;7.00;;;;;21.52;44.01;98740.28;6277750;20;2738000;-68
2023/04/02 06:39:52;;;;;;;;;12.00;11.00;;;;;22.43;42.56;98736.19;6275623;20;2788951;-65
2023/04/02 06:42:37;;;;;;;;;3.50;3.50;;;;;22.72;40.66;98746.19;6306983;20;2756500;-69
2023/04/02 06:45:23;;;;;;;;;3.67;3.33;;;;;23.22;39.17;98748.94;6273921;20;2734644;-65
2023/04/02 06:47:57;;;;;;;;;7.20;6.00;;;;;23.60;38.05;98748.59;6329868;20;2743035;-64
2023/04/02 06:51:01;;;;;;;;;8.67;8.33;;;;;23.41;38.03;98751.00;6306750;20;2745063;-69
2023/04/02 06:53:45;;;;;;;;;6.00;5.00;;;;;24.51;36.05;98764.88;6327894;20;2742993;-64
2023/04/02 06:56:48;;;;;;;;;6.20;5.00;;;;;23.74;37.25;98753.13;6329405;20;2742081;-65
2023/04/02 06:59:19;;;;;;;;;4.00;4.00;;;;;24.05;35.34;98758.13;6332419;20;2749421;-66
2023/04/02 07:02:11;;;;;;;;;7.00;5.00;;;;;24.51;35.21;98762.13;6276729;20;2729502;-66
2023/04/02 07:04:41;;;;;;;;;4.20;4.20;;;;;23.87;37.28;98755.94;6328045;20;2746177;-64
2023/04/02 07:07:11;;;;;;;;;3.40;3.40;;;;;25.87;33.03;98769.16;6325826;20;2737795;-68
2023/04/02 07:09:41;;;;;;;;;3.60;3.60;;;;;25.05;34.65;98766.66;6330032;20;2756528;-67
2023/04/02 07:12:13;;;;;;;;;3.00;3.00;;;;;25.59;33.66;98770.25;6301514;20;2754446;-68
2023/04/02 07:14:42;;;;;;;;;4.00;4.00;;;;;25.83;33.30;98777.81;6297390;20;2743515;-65
2023/04/02 07:17:20;;;;;;;;;3.40;3.20;;;;;25.10;33.86;98777.84;6329555;20;2748261;-66
2023/04/02 07:19:50;;;;;;;;;3.00;3.00;;;;;24.58;34.63;98768.47;6295548;20;2739944;-66
2023/04/02 07:22:21;;;;;;;;;3.00;3.00;;;;;25.51;33.23;98779.56;6332679;20;2739961;-68
2023/04/02 07:24:50;;;;;;;;;4.00;2.20;;;;;25.12;33.48;98781.25;6329733;20;2739895;-65
2023/04/02 07:27:20;;;;;;;;;3.40;3.40;;;;;20.48;39.62;98759.03;6327867;20;2750455;-69
2023/04/02 07:29:49;;;;;;;;;5.00;5.00;;;;;18.23;47.67;98758.13;6297697;20;2741919;-71
2023/04/02 07:32:19;;;;;;;;;2.33;2.33;;;;;17.28;50.48;98752.75;6306603;20;2731544;-68
2023/04/02 07:34:49;;;;;;;;;4.80;4.80;;;;;17.97;49.92;98764.47;6326910;20;2745113;-70
2023/04/02 07:37:18;;;;;;;;;5.00;3.33;;;;;17.04;51.19;98761.59;6305282;20;2756602;-69
2023/04/02 07:39:45;;;;;;;;;5.00;4.00;;;;;17.60;50.40;98754.78;6311952;20;2741395;-71
2023/04/02 07:42:13;;;;;;;;;8.00;4.50;;;;;17.02;50.92;98753.59;6283736;20;2745108;-71
2023/04/02 07:44:41;;;;;;;;;4.00;2.50;;;;;16.80;52.21;98757.69;6268655;20;2748194;-67
2023/04/02 07:47:09;;;;;;;;;4.00;4.00;;;;;16.67;53.67;98766.16;6278481;20;2745111;-69
2023/04/02 07:49:37;;;;;;;;;4.00;4.00;;;;;17.14;50.59;98754.19;6276958;20;2752564;-70
2023/04/02 07:52:07;;;;;;;;;4.60;3.00;;;;;17.76;51.09;98762.16;6301577;20;2740948;-70
2023/04/02 07:54:37;;;;;;;;;3.50;3.50;;;;;16.98;52.76;98767.63;6320515;20;1808750;-65
2023/04/02 07:57:05;;;;;;;;;3.00;3.00;;;;;17.37;51.06;98767.22;6306020;20;2750522;-65
2023/04/02 07:59:33;;;;;;;;;4.00;4.00;;;;;17.20;50.97;98774.41;6276803;20;2749291;-69
2023/04/02 08:02:01;;;;;;;;;4.50;4.50;;;;;17.36;51.85;98765.53;6277548;20;2748207;-67
2023/04/02 08:04:29;;;;;;;;;5.00;4.00;;;;;18.18;50.14;98769.47;6274037;20;2755503;-68
2023/04/02 08:06:57;;;;;;;;;3.50;3.00;;;;;17.86;49.64;98767.50;6274088;20;2744165;-70
2023/04/02 08:09:25;;;;;;;;;4.00;4.00;;;;;17.48;51.13;98769.66;6278138;20;2752505;-66
2023/04/02 08:11:53;;;;;;;;;4.00;4.00;;;;;17.72;50.98;98769.78;6274176;20;2754465;-68
2023/04/02 08:14:21;;;;;;;;;3.00;3.00;;;;;17.17;51.42;98769.28;6274727;20;2744060;-70
2023/04/02 08:16:55;;;;;;;;;0.00;0.00;;;;;17.25;52.31;98772.06;6276350;20;2727379;-69
2023/04/02 08:19:25;;;;;;;;;4.40;4.40;;;;;17.50;50.25;98767.63;6294782;20;2750290;-70
2023/04/02 08:21:54;;;;;;;;;4.00;3.00;;;;;17.60;50.93;98776.50;6301822;20;2741967;-69
2023/04/02 08:24:22;;;;;;;;;3.00;3.00;;;;;17.80;50.29;98774.44;6278732;20;2741971;-69
2023/04/02 08:26:53;;;;;;;;;2.00;2.00;;;;;17.29;51.35;98782.44;6276976;20;2742059;-67
2023/04/02 08:29:22;;;;;;;;;5.00;4.00;;;;;17.63;49.82;98786.19;6277006;20;2750386;-67
2023/04/02 08:31:50;;;;;;;;;4.50;4.50;;;;;18.01;49.93;98784.00;6277166;20;2743005;-72
2023/04/02 08:34:18;;;;;;;;;4.50;4.50;;;;;18.01;48.98;98794.88;6279819;20;2747269;-69
2023/04/02 08:36:46;;;;;;;;;3.00;3.00;;;;;17.81;49.55;98781.56;6275112;20;2741983;-67
2023/04/02 08:39:14;;;;;;;;;1.00;1.00;;;;;17.68;49.61;98789.28;6281965;20;2740993;-69
2023/04/02 08:41:57;;;;;;;;;4.00;4.00;;;;;18.28;49.54;98791.91;6328346;20;2752367;-73
2023/04/02 08:44:54;;;;;;;;;2.40;2.20;;;;;18.76;48.30;98786.75;6294570;20;2727814;-69
2023/04/02 08:47:28;;;;;;;;;5.50;5.50;;;;;18.46;48.30;98783.66;6308439;20;2737934;-69
2023/04/02 08:50:12;;;;;;;;;5.00;5.00;;;;;18.42;49.15;98783.09;6276496;20;2741965;-71
2023/04/02 08:52:41;;;;;;;;;6.67;5.00;;;;;18.39;48.82;98788.88;6271329;20;2733626;-66
2023/04/02 08:55:41;;;;;;;;;2.00;2.00;;;;;17.56;49.44;98783.25;6303572;20;2748280;-68
2023/04/02 08:58:40;;;;;;;;;2.00;2.00;;;;;18.17;48.00;98786.81;6277213;20;2730706;-70
2023/04/02 09:01:43;;;;;;;;;4.00;4.00;;;;;18.81;48.25;98790.69;6274687;20;2752411;-68
2023/04/02 09:04:20;;;;;;;;;5.80;4.60;;;;;17.74;50.38;98786.75;6298393;20;2748207;-66
2023/04/02 09:06:55;;;;;;;;;6.00;5.00;;;;;17.66;50.09;98786.72;6300463;20;2747167;-67
2023/04/02 09:09:24;;;;;;;;;3.00;3.00;;;;;17.05;51.65;98784.97;6270804;20;2750301;-69
2023/04/02 09:12:05;;;;;;;;;6.00;5.00;;;;;16.70;52.87;98786.69;6274644;20;2745174;-67
2023/04/02 09:15:32;;;;;;;;;2.00;2.00;;;;;17.62;49.03;98798.91;6270837;20;2751328;-69
2023/04/02 09:18:19;;;;;;;;;2.00;2.00;;;;;16.91;51.62;98799.09;6268581;20;2752368;-66
2023/04/02 09:20:48;;;;;;;;;3.00;3.00;;;;;16.53;53.05;98796.50;6276207;20;2754519;-67
2023/04/02 09:23:22;;;;;;;;;4.00;4.00;;;;;16.47;53.29;98802.56;6278685;20;2736782;-69
2023/04/02 09:25:53;;;;;;;;;5.00;4.00;;;;;16.27;53.10;98796.41;6275801;20;2735835;-71
2023/04/02 09:28:31;;;;;;;;;4.50;4.50;;;;;17.11;52.14;98796.06;6275652;20;2742996;-68
2023/04/02 09:31:42;;;;;;;;;4.50;4.50;;;;;17.27;50.34;98795.31;6272131;20;2748226;-68
2023/04/02 09:34:35;;;;;;;;;4.00;4.00;;;;;18.49;47.33;98801.50;6270212;20;2753480;-69
2023/04/02 09:37:24;;;;;;;;;5.50;4.50;;;;;17.62;47.89;98809.78;6270526;20;2748320;-71
2023/04/02 09:40:16;;;;;;;;;3.00;3.00;;;;;18.05;48.68;98799.81;6277463;20;2727359;-69
2023/04/02 09:42:45;;;;;;;;;6.00;4.00;;;;;16.80;49.92;98803.75;6274054;20;2754479;-65
2023/04/02 09:45:22;;;;;;;;;3.50;3.00;;;;;16.82;50.34;98801.72;6271429;20;2753412;-65
2023/04/02 09:47:53;;;;;;;;;5.00;3.00;;;;;16.67;52.00;98803.28;6274151;20;2749288;-68
2023/04/02 09:50:22;;;;;;;;;2.00;2.00;;;;;16.20;53.54;98811.59;6272530;20;2728549;-66
2023/04/02 09:52:50;;;;;;;;;3.00;3.00;;;;;16.29;53.31;98810.66;6274519;20;2752432;-65
2023/04/02 09:55:26;;;;;;;;;4.00;4.00;;;;;16.24;53.95;98807.56;6276191;20;2739926;-70
2023/04/02 09:58:16;;;;;;;;;4.00;4.00;;;;;15.92;54.33;98811.59;6271874;20;2774338;-71
2023/04/02 10:00:54;;;;;;;;;3.50;3.50;;;;;15.84;55.72;98808.78;6275028;20;2744049;-65
2023/04/02 10:03:27;;;;;;;;;4.50;4.50;;;;;15.85;56.20;98813.22;6274089;20;2747202;-67
2023/04/02 10:06:14;;;;;;;;;6.00;5.00;;;;;15.75;55.92;98815.94;6268447;20;2748296;-66
2023/04/02 10:08:45;;;;;;;;;5.50;5.50;;;;;15.93;57.31;98807.88;6275485;20;2738859;-69
2023/04/02 10:11:29;;;;;;;;;6.00;4.00;;;;;15.92;56.50;98814.28;6271793;20;2741982;-68
2023/04/02 10:14:24;;;;;;;;;4.86;4.86;;;;;15.70;57.86;98810.13;6311039;20;3461731;-74
2023/04/02 10:17:09;;;;;;;;;5.00;5.00;;;;;15.86;58.63;98814.06;6301760;20;2737873;-68
2023/04/02 10:19:54;;;;;;;;;5.00;5.00;;;;;16.30;56.95;98817.81;6273012;20;2748305;-68
2023/04/02 10:22:23;;;;;;;;;8.00;6.25;;;;;16.33;56.66;98812.06;6290507;20;1789847;-65
2023/04/02 10:24:52;;;;;;;;;7.50;5.75;;;;;17.71;51.65;98802.53;6318130;20;1813919;-69
2023/04/02 10:28:01;;;;;;;;;4.00;4.00;;;;;18.44;49.01;98807.41;6303525;20;2748241;-71
2023/04/02 10:31:25;;;;;;;;;5.00;5.00;;;;;19.69;45.90;98810.84;6275278;20;2731540;-68
2023/04/02 10:34:03;;;;;;;;;5.80;5.00;;;;;18.62;47.21;98804.56;6290803;20;2744061;-66
2023/04/02 10:36:59;;;;;;;;;4.00;4.00;;;;;16.88;50.96;98808.41;6300402;20;2743082;-68
2023/04/02 10:39:47;;;;;;;;;6.00;5.00;;;;;16.73;52.85;98808.06;6267125;20;2743638;-70
2023/04/02 10:42:24;;;;;;;;;5.50;4.00;;;;;17.05;52.23;98809.38;6272071;20;2744157;-68
2023/04/02 10:45:30;;;;;;;;;4.00;4.00;;;;;16.55;54.07;98804.50;6274212;20;2745157;-69
2023/04/02 10:48:49;;;;;;;;;5.50;5.50;;;;;16.58;54.12;98798.75;6276690;20;2739928;-68
2023/04/02 10:51:45;;;;;;;;;3.40;3.40;;;;;16.71;53.12;98798.38;6302566;20;2737846;-68
2023/04/02 10:54:48;;;;;;;;;4.00;4.00;;;;;16.63;53.40;98802.72;6305678;20;2756573;-67
2023/04/02 10:57:54;;;;;;;;;5.67;4.00;;;;;17.16;50.97;98797.44;6267238;20;2742031;-66
2023/04/02 11:00:33;;;;;;;;;5.80;5.80;;;;;16.74;52.44;98798.06;6329149;20;2739942;-67
2023/04/02 11:03:26;;;;;;;;;4.00;4.00;;;;;16.48;56.50;98808.81;6306727;20;2751574;-69
2023/04/02 11:06:05;;;;;;;;;3.50;3.50;;;;;16.09;60.88;98804.53;6274173;20;2751315;-66
2023/04/02 11:08:50;;;;;;;;;14.67;12.67;;;;;15.71;65.05;98810.97;6275814;20;3532563;-67
2023/04/02 11:11:42;;;;;;;;;18.00;17.00;;;;;15.62;65.49;98801.03;6306008;20;3545076;-67
2023/04/02 11:14:22;;;;;;;;;7.00;6.40;;;;;15.54;70.63;98799.91;6328527;20;2736763;-68
2023/04/02 11:16:54;;;;;;;;;3.00;3.00;;;;;15.58;71.11;98801.28;6306594;20;2736855;-68
2023/04/02 11:19:31;;;;;;;;;4.00;3.00;;;;;15.74;69.48;98800.69;6272818;20;2748227;-67
2023/04/02 11:22:24;;;;;;;;;4.00;4.00;;;;;15.99;68.45;98795.59;6274586;20;2740968;-68
2023/04/02 11:24:55;;;;;;;;;9.67;9.67;;;;;16.20;61.88;98806.16;6266469;20;3489864;-67
2023/04/02 11:27:33;;;;;;;;;6.29;6.29;;;;;16.01;62.67;98799.88;6343778;20;3456501;-66
2023/04/02 11:30:26;;;;;;;;;7.00;7.00;;;;;16.58;57.65;98809.59;6350251;20;3445082;-67
2023/04/02 11:33:40;;;;;;;;;4.00;4.00;;;;;16.51;62.62;98803.97;6303909;20;2741965;-66
2023/04/02 11:36:49;;;;;;;;;6.50;6.50;;;;;16.30;60.07;98808.78;6273260;20;2744072;-66
2023/04/02 11:39:58;;;;;;;;;8.14;7.14;;;;;15.39;65.31;98819.44;6318478;20;3451349;-68
2023/04/02 11:42:35;;;;;;;;;3.00;3.00;;;;;14.35;68.70;98819.16;6304810;20;2752529;-68
2023/04/02 11:48:02;;;;;;;;;5.00;5.00;;;;;13.00;83.26;98828.38;6271762;20;2729487;-66
2023/04/02 11:50:34;;;;;;;;;33.00;27.33;;;;;13.10;85.23;98840.06;6273021;20;3606583;-68
2023/04/02 11:53:10;;;;;;;;;31.00;26.67;;;;;12.57;88.70;98827.47;6271549;20;3602838;-64
2023/04/02 11:56:04;;;;;;;;;51.33;40.00;;;;;12.76;89.96;98821.38;6270265;20;3623242;-68
2023/04/02 11:59:09;;;;;;;;;8.20;5.40;;;;;12.79;85.24;98821.13;6329749;20;2747168;-65
2023/04/02 12:02:23;;;;;;;;;4.00;2.50;;;;;12.73;85.27;98825.19;6301952;20;2744126;-67
2023/04/02 12:05:16;;;;;;;;;4.86;4.86;;;;;12.93;86.15;98814.56;6307698;20;3457652;-70
2023/04/02 12:08:33;;;;;;;;;24.67;24.33;;;;;12.99;87.38;98813.19;6292304;20;2848240;-67
2023/04/02 12:11:14;;;;;;;;;46.00;37.00;;;;;12.79;87.17;98810.34;6286994;20;3604521;-66
2023/04/02 12:13:42;;;;;;;;;12.00;10.50;;;;;13.03;85.10;98810.09;6255914;20;2783749;-65
2023/04/02 12:16:12;;;;;;;;;9.50;9.50;;;;;13.08;86.29;98804.31;6267846;20;2770396;-66
2023/04/02 12:18:52;;;;;;;;;5.50;5.50;;;;;13.48;85.45;98798.16;6249666;20;2742128;-68
2023/04/02 12:21:27;;;;;;;;;10.20;8.80;;;;;13.39;90.69;98803.38;6274986;20;2756699;-67
2023/04/02 12:24:00;;;;;;;;;17.50;17.00;;;;;12.90;92.29;98798.66;6245290;20;2831668;-68
2023/04/02 12:26:36;;;;;;;;;9.00;7.50;;;;;13.18;89.57;98797.13;6248130;20;2733765;-65
2023/04/02 12:29:28;;;;;;;;;10.00;8.50;;;;;13.01;91.36;98789.66;6250029;20;2773315;-66
2023/04/02 12:31:58;;;;;;;;;14.00;14.00;;;;;13.02;89.86;98794.06;6249757;20;2791031;-67
2023/04/02 12:34:29;;;;;;;;;17.50;17.00;;;;;12.83;91.71;98800.19;6245825;20;2833781;-67
2023/04/02 12:37:03;;;;;;;;;18.00;17.00;;;;;12.91;88.97;98809.31;6246852;20;2836838;-67